createdAt,value
2023-07-25T00:02:03.721Z,21.41
2023-07-25T00:03:59.893Z,21.39
2023-07-25T00:06:01.530Z,21.40
2023-07-25T00:07:45.139Z,21.37
2023-07-25T00:09:30.438Z,21.34
2023-07-25T00:11:08.450Z,21.32
2023-07-25T00:13:00.379Z,21.30
2023-07-25T00:14:37.993Z,21.28
2023-07-25T00:16:18.580Z,21.27
2023-07-25T00:18:03.455Z,21.25
2023-07-25T00:19:50.021Z,21.24
2023-07-25T00:21:17.505Z,21.22
2023-07-25T00:23:19.247Z,21.20
2023-07-25T00:25:11.195Z,21.18
2023-07-25T00:27:13.131Z,21.16
2023-07-25T00:28:46.371Z,21.14
2023-07-25T00:30:48.738Z,21.12
2023-07-25T00:32:33.507Z,21.10
2023-07-25T00:34:15.164Z,21.08
2023-07-25T00:36:05.989Z,21.07
2023-07-25T00:38:07.470Z,21.04
2023-07-25T00:40:09.399Z,21.01
2023-07-25T00:41:54.349Z,21.02
2023-07-25T00:43:35.872Z,21.00
2023-07-25T00:45:30.690Z,21.00
2023-07-25T00:47:20.583Z,20.97
2023-07-25T00:49:22.182Z,20.97
2023-07-25T00:51:17.952Z,20.93
2023-07-25T00:53:02.578Z,20.91
2023-07-25T00:54:53.489Z,20.89
2023-07-25T00:56:44.723Z,20.87
2023-07-25T00:58:30.068Z,20.84
2023-07-25T01:00:07.241Z,20.84
2023-07-25T01:01:51.229Z,20.82
2023-07-25T01:03:35.408Z,20.83
2023-07-25T01:05:22.018Z,20.82
2023-07-25T01:07:17.501Z,20.82
2023-07-25T01:08:50.449Z,20.83
2023-07-25T01:10:41.712Z,20.82
2023-07-25T01:12:33.171Z,20.82
2023-07-25T01:14:35.260Z,20.81
2023-07-25T01:16:36.885Z,20.81
2023-07-25T01:18:38.696Z,20.81
2023-07-25T01:20:38.800Z,20.81
2023-07-25T01:22:23.790Z,20.81
2023-07-25T01:24:15.393Z,20.82
2023-07-25T01:26:10.842Z,20.83
2023-07-25T01:28:05.403Z,20.83
2023-07-25T01:29:52.742Z,20.83
2023-07-25T01:31:43.509Z,20.82
2023-07-25T01:33:26.086Z,20.80
2023-07-25T01:35:21.173Z,20.77
2023-07-25T01:37:10.632Z,20.75
2023-07-25T01:38:56.656Z,20.74
2023-07-25T01:40:38.218Z,20.73
2023-07-25T01:42:31.215Z,20.70
2023-07-25T01:44:09.650Z,20.69
2023-07-25T01:46:01.724Z,20.63
2023-07-25T01:47:54.493Z,20.68
2023-07-25T01:49:38.948Z,20.65
2023-07-25T01:51:39.428Z,20.61
2023-07-25T01:53:34.783Z,20.61
2023-07-25T01:55:22.186Z,20.62
2023-07-25T01:56:51.013Z,20.60
2023-07-25T01:58:35.547Z,20.58
2023-07-25T02:00:22.971Z,20.57
2023-07-25T02:02:24.668Z,20.56
2023-07-25T02:04:20.929Z,20.57
2023-07-25T02:06:05.068Z,20.56
2023-07-25T02:07:55.983Z,20.57
2023-07-25T02:09:41.329Z,20.56
2023-07-25T02:11:09.957Z,20.56
2023-07-25T02:12:57.286Z,20.57
2023-07-25T02:14:58.211Z,20.58
2023-07-25T02:16:39.938Z,20.57
2023-07-25T02:18:21.927Z,20.54
2023-07-25T02:20:06.674Z,20.52
2023-07-25T02:21:58.147Z,20.52
2023-07-25T02:23:41.933Z,20.51
2023-07-25T02:25:33.899Z,20.51
2023-07-25T02:27:28.803Z,20.50
2023-07-25T02:29:21.349Z,20.48
2023-07-25T02:31:23.870Z,20.47
2023-07-25T02:33:10.560Z,20.44
2023-07-25T02:35:12.326Z,20.43
2023-07-25T02:36:51.651Z,20.39
2023-07-25T02:38:27.948Z,20.38
2023-07-25T02:40:05.926Z,20.24
2023-07-25T02:42:01.802Z,20.33
2023-07-25T02:43:49.028Z,20.31
2023-07-25T02:45:29.490Z,20.30
2023-07-25T02:47:17.682Z,20.28
2023-07-25T02:49:04.655Z,20.27
2023-07-25T02:50:57.708Z,20.25
2023-07-25T02:52:39.928Z,20.23
2023-07-25T02:54:27.179Z,20.22
2023-07-25T02:56:01.944Z,20.19
2023-07-25T02:58:03.821Z,20.19
2023-07-25T02:59:53.705Z,20.16
2023-07-25T03:01:32.142Z,20.13
2023-07-25T03:03:33.084Z,20.12
2023-07-25T03:05:17.668Z,20.12
2023-07-25T03:07:09.721Z,20.11
2023-07-25T03:08:46.932Z,20.10
2023-07-25T03:10:28.389Z,20.09
2023-07-25T03:12:29.973Z,20.07
2023-07-25T03:14:22.430Z,20.08
2023-07-25T03:16:10.878Z,19.96
2023-07-25T03:18:04.239Z,20.07
2023-07-25T03:19:48.898Z,20.07
2023-07-25T03:21:25.490Z,20.06
2023-07-25T03:23:20.429Z,20.06
2023-07-25T03:25:02.261Z,20.05
2023-07-25T03:26:29.138Z,20.04
2023-07-25T03:28:15.901Z,20.00
2023-07-25T03:30:02.678Z,20.02
2023-07-25T03:31:38.269Z,20.04
2023-07-25T03:33:33.063Z,20.03
2023-07-25T03:35:35.065Z,20.02
2023-07-25T03:37:36.813Z,20.03
2023-07-25T03:39:24.403Z,20.02
2023-07-25T03:40:52.584Z,20.01
2023-07-25T03:42:38.906Z,19.99
2023-07-25T03:44:20.421Z,19.97
2023-07-25T03:46:00.687Z,19.89
2023-07-25T03:47:53.460Z,19.94
2023-07-25T03:49:38.228Z,19.94
2023-07-25T03:51:30.414Z,19.94
2023-07-25T03:53:32.439Z,19.95
2023-07-25T03:55:34.369Z,19.93
2023-07-25T03:57:08.512Z,19.93
2023-07-25T03:58:53.469Z,19.93
2023-07-25T04:00:40.271Z,19.95
2023-07-25T04:02:30.456Z,19.93
2023-07-25T04:04:12.586Z,19.94
2023-07-25T04:05:59.937Z,19.92
2023-07-25T04:07:47.283Z,19.92
2023-07-25T04:09:40.626Z,19.94
2023-07-25T04:11:33.641Z,19.95
2023-07-25T04:13:27.118Z,19.96
2023-07-25T04:15:21.428Z,19.96
2023-07-25T04:17:23.407Z,19.97
2023-07-25T04:18:55.590Z,19.97
2023-07-25T04:20:42.747Z,19.98
2023-07-25T04:22:17.890Z,20.04
2023-07-25T04:23:55.495Z,20.04
2023-07-25T04:25:19.716Z,20.11
2023-07-25T04:27:01.826Z,20.12
2023-07-25T04:28:57.181Z,20.14
2023-07-25T04:30:40.931Z,20.18
2023-07-25T04:32:08.140Z,20.20
2023-07-25T04:33:41.434Z,20.21
2023-07-25T04:35:20.139Z,20.20
2023-07-25T04:37:14.137Z,20.25
2023-07-25T04:39:06.847Z,20.28
2023-07-25T04:40:48.180Z,20.32
2023-07-25T04:42:30.145Z,20.34
2023-07-25T04:44:08.194Z,20.33
2023-07-25T04:46:10.078Z,20.31
2023-07-25T04:48:11.662Z,20.26
2023-07-25T04:49:46.485Z,20.27
2023-07-25T04:51:48.645Z,20.21
2023-07-25T04:53:33.415Z,20.20
2023-07-25T04:55:17.832Z,20.16
2023-07-25T04:57:08.905Z,20.18
2023-07-25T04:58:56.091Z,20.21
2023-07-25T05:00:47.171Z,20.22
2023-07-25T05:02:08.502Z,20.24
2023-07-25T05:03:46.038Z,20.25
2023-07-25T05:05:38.678Z,20.21
2023-07-25T05:07:40.877Z,20.30
2023-07-25T05:09:19.506Z,20.35
2023-07-25T05:10:54.291Z,20.37
2023-07-25T05:12:20.702Z,20.44
2023-07-25T05:14:10.949Z,20.47
2023-07-25T05:16:04.101Z,20.53
2023-07-25T05:18:05.902Z,20.56
2023-07-25T05:20:00.879Z,20.59
2023-07-25T05:22:03.143Z,20.62
2023-07-25T05:24:05.182Z,20.62
2023-07-25T05:26:07.236Z,20.62
2023-07-25T05:27:53.751Z,20.60
2023-07-25T05:29:44.697Z,20.57
2023-07-25T05:31:46.671Z,20.62
2023-07-25T05:33:39.525Z,20.68
2023-07-25T05:35:41.649Z,20.75
2023-07-25T05:37:30.880Z,20.82
2023-07-25T05:39:04.121Z,20.86
2023-07-25T05:40:42.590Z,20.91
2023-07-25T05:42:44.690Z,20.91
2023-07-25T05:44:29.532Z,20.90
2023-07-25T05:46:31.689Z,20.87
2023-07-25T05:48:30.265Z,20.93
2023-07-25T05:50:17.348Z,20.98
2023-07-25T05:52:01.766Z,21.03
2023-07-25T05:53:28.381Z,21.03
2023-07-25T05:54:55.251Z,21.03
2023-07-25T05:56:27.081Z,21.02
2023-07-25T05:58:08.872Z,21.07
2023-07-25T05:59:44.832Z,21.09
2023-07-25T06:01:31.546Z,21.10
2023-07-25T06:03:03.410Z,21.09
2023-07-25T06:04:47.465Z,21.11
2023-07-25T06:06:49.330Z,21.20
2023-07-25T06:08:23.675Z,21.22
2023-07-25T06:10:08.275Z,21.21
2023-07-25T06:12:02.516Z,21.17
2023-07-25T06:14:06.452Z,21.24
2023-07-25T06:15:52.612Z,21.36
2023-07-25T06:17:53.496Z,21.41
2023-07-25T06:19:45.824Z,21.47
2023-07-25T06:21:29.403Z,21.50
2023-07-25T06:23:14.445Z,21.51
2023-07-25T06:25:16.398Z,21.51
2023-07-25T06:26:42.517Z,21.53
2023-07-25T06:28:38.037Z,21.53
2023-07-25T06:30:40.400Z,21.60
2023-07-25T06:32:42.449Z,21.65
2023-07-25T06:34:06.358Z,21.68
2023-07-25T06:35:39.303Z,21.66
2023-07-25T06:37:24.121Z,21.60
2023-07-25T06:39:04.065Z,21.70
2023-07-25T06:40:50.657Z,21.73
2023-07-25T06:42:52.620Z,21.81
2023-07-25T06:44:47.607Z,21.87
2023-07-25T06:46:26.266Z,21.93
2023-07-25T06:48:27.912Z,22.02
2023-07-25T06:50:09.681Z,22.06
2023-07-25T06:52:02.504Z,22.11
2023-07-25T06:54:04.264Z,22.16
2023-07-25T06:55:59.055Z,22.22
2023-07-25T06:57:53.948Z,22.21
2023-07-25T06:59:33.396Z,22.21
2023-07-25T07:01:17.903Z,22.26
2023-07-25T07:03:02.495Z,22.32
2023-07-25T07:04:55.299Z,22.41
2023-07-25T07:06:36.882Z,22.48
2023-07-25T07:08:31.248Z,22.54
2023-07-25T07:10:24.256Z,22.63
2023-07-25T07:11:54.143Z,22.74
2023-07-25T07:13:28.836Z,22.84
2023-07-25T07:15:25.008Z,22.92
2023-07-25T07:17:26.672Z,22.90
2023-07-25T07:19:14.203Z,22.92
2023-07-25T07:21:08.652Z,22.97
2023-07-25T07:23:09.308Z,23.04
2023-07-25T07:24:51.731Z,23.12
2023-07-25T07:26:52.570Z,23.13
2023-07-25T07:28:44.274Z,23.13
2023-07-25T07:30:16.054Z,23.16
2023-07-25T07:32:18.020Z,23.19
2023-07-25T07:34:07.891Z,23.28
2023-07-25T07:35:57.001Z,23.34
2023-07-25T07:37:51.436Z,23.41
2023-07-25T07:39:30.859Z,23.44
2023-07-25T07:41:20.160Z,23.50
2023-07-25T07:43:05.415Z,23.51
2023-07-25T07:44:47.193Z,23.48
2023-07-25T07:46:38.324Z,23.42
2023-07-25T07:48:17.650Z,23.44
2023-07-25T07:50:18.986Z,23.56
2023-07-25T07:52:29.419Z,23.66
2023-07-25T07:54:06.505Z,23.78
2023-07-25T07:55:59.365Z,23.82
2023-07-25T07:58:01.015Z,23.78
2023-07-25T07:59:42.907Z,23.83
2023-07-25T08:01:21.052Z,23.89
2023-07-25T08:03:14.897Z,23.94
2023-07-25T08:05:15.614Z,24.02
2023-07-25T08:06:49.011Z,24.03
2023-07-25T08:08:41.827Z,24.04
2023-07-25T08:10:15.542Z,24.08
2023-07-25T08:12:10.945Z,24.10
2023-07-25T08:13:46.981Z,24.11
2023-07-25T08:15:31.035Z,24.26
2023-07-25T08:17:25.434Z,24.30
2023-07-25T08:19:02.906Z,24.37
2023-07-25T08:20:51.048Z,24.46
2023-07-25T08:22:37.893Z,24.54
2023-07-25T08:24:39.455Z,24.55
2023-07-25T08:26:14.484Z,24.53
2023-07-25T08:28:03.740Z,24.56
2023-07-25T08:30:05.698Z,24.60
2023-07-25T08:31:30.071Z,24.61
2023-07-25T08:33:26.454Z,24.72
2023-07-25T08:35:17.745Z,24.78
2023-07-25T08:37:12.551Z,24.74
2023-07-25T08:38:47.332Z,24.83
2023-07-25T08:40:49.289Z,24.92
2023-07-25T08:42:41.245Z,24.98
2023-07-25T08:44:17.874Z,24.98
2023-07-25T08:46:02.617Z,24.95
2023-07-25T08:47:57.525Z,24.94
2023-07-25T08:49:30.455Z,25.02
2023-07-25T08:50:54.983Z,25.09
2023-07-25T08:52:30.567Z,25.15
2023-07-25T08:53:56.972Z,25.26
2023-07-25T08:55:34.593Z,25.30
2023-07-25T08:57:19.532Z,25.32
2023-07-25T08:59:03.721Z,25.33
2023-07-25T09:00:39.474Z,25.44
2023-07-25T09:02:25.773Z,25.46
2023-07-25T09:03:54.748Z,25.48
2023-07-25T09:05:35.042Z,25.47
2023-07-25T09:07:02.435Z,25.50
2023-07-25T09:08:32.084Z,25.59
2023-07-25T09:10:22.785Z,25.67
2023-07-25T09:11:57.013Z,25.71
2023-07-25T09:13:51.321Z,25.69
2023-07-25T09:15:53.584Z,25.77
2023-07-25T09:17:25.035Z,25.88
2023-07-25T09:19:17.612Z,25.91
2023-07-25T09:21:04.354Z,25.92
2023-07-25T09:22:49.725Z,25.97
2023-07-25T09:24:44.237Z,26.15
2023-07-25T09:26:43.548Z,26.31
2023-07-25T09:28:36.826Z,26.38
2023-07-25T09:30:18.449Z,26.33
2023-07-25T09:32:00.446Z,26.34
2023-07-25T09:34:02.576Z,26.33
2023-07-25T09:35:53.737Z,26.29
2023-07-25T09:37:49.590Z,26.37
2023-07-25T09:39:40.937Z,26.47
2023-07-25T09:41:42.702Z,26.69
2023-07-25T09:43:44.604Z,26.78
2023-07-25T09:45:27.870Z,26.81
2023-07-25T09:47:18.170Z,26.59
2023-07-25T09:49:00.083Z,26.43
2023-07-25T09:51:02.065Z,26.43
2023-07-25T09:53:04.242Z,26.55
2023-07-25T09:54:49.978Z,26.65
2023-07-25T09:56:44.839Z,26.80
2023-07-25T09:58:30.408Z,26.94
2023-07-25T10:00:32.408Z,27.15
2023-07-25T10:02:18.801Z,27.28
2023-07-25T10:04:03.447Z,27.07
2023-07-25T10:05:37.520Z,26.52
2023-07-25T10:07:39.428Z,26.22
2023-07-25T10:09:19.034Z,26.05
2023-07-25T10:10:56.238Z,25.99
2023-07-25T10:12:53.071Z,26.00
2023-07-25T10:14:41.434Z,26.06
2023-07-25T10:16:15.077Z,26.23
2023-07-25T10:17:50.754Z,26.36
2023-07-25T10:19:43.612Z,26.54
2023-07-25T10:21:28.799Z,26.62
2023-07-25T10:23:21.470Z,26.52
2023-07-25T10:25:12.120Z,26.41
2023-07-25T10:26:40.183Z,26.34
2023-07-25T10:28:16.125Z,26.45
2023-07-25T10:30:00.363Z,26.61
2023-07-25T10:31:44.478Z,26.75
2023-07-25T10:33:29.332Z,26.69
2023-07-25T10:35:10.079Z,26.53
2023-07-25T10:37:04.736Z,26.42
2023-07-25T10:38:49.341Z,26.34
2023-07-25T10:40:50.975Z,26.24
2023-07-25T10:44:27.316Z,26.39
2023-07-25T10:46:28.118Z,26.69
2023-07-25T10:48:13.641Z,26.90
2023-07-25T10:50:06.698Z,27.07
2023-07-25T10:52:08.480Z,27.15
2023-07-25T10:53:57.086Z,27.23
2023-07-25T10:56:00.920Z,27.14
2023-07-25T10:58:04.498Z,26.75
2023-07-25T10:59:49.984Z,26.44
2023-07-25T11:01:34.681Z,26.35
2023-07-25T11:03:17.271Z,26.33
2023-07-25T11:04:53.093Z,26.58
2023-07-25T11:06:44.974Z,26.93
2023-07-25T11:08:27.953Z,27.33
2023-07-25T11:10:12.026Z,27.55
2023-07-25T11:12:01.481Z,27.70
2023-07-25T11:13:50.541Z,27.78
2023-07-25T11:15:45.709Z,27.71
2023-07-25T11:17:37.946Z,27.80
2023-07-25T11:19:20.015Z,27.82
2023-07-25T11:21:06.757Z,27.76
2023-07-25T11:22:48.710Z,27.70
2023-07-25T11:24:13.241Z,27.57
2023-07-25T11:26:15.086Z,27.55
2023-07-25T11:27:58.728Z,27.52
2023-07-25T11:29:46.407Z,27.47
2023-07-25T11:31:22.970Z,27.36
2023-07-25T11:33:25.058Z,27.31
2023-07-25T11:35:26.884Z,27.10
2023-07-25T11:37:29.102Z,27.04
2023-07-25T11:39:14.106Z,27.13
2023-07-25T11:40:59.032Z,27.27
2023-07-25T11:43:00.901Z,27.32
2023-07-25T11:44:45.505Z,27.27
2023-07-25T11:46:26.949Z,27.19
2023-07-25T11:48:21.616Z,27.28
2023-07-25T11:50:27.241Z,27.20
2023-07-25T11:52:22.388Z,27.18
2023-07-25T11:54:01.345Z,27.20
2023-07-25T11:55:54.201Z,27.18
2023-07-25T11:57:38.996Z,27.21
2023-07-25T11:59:02.961Z,27.11
2023-07-25T12:00:52.325Z,27.01
2023-07-25T12:02:20.706Z,26.96
2023-07-25T12:04:08.081Z,26.97
2023-07-25T12:05:54.931Z,26.98
2023-07-25T12:07:16.346Z,26.98
2023-07-25T12:09:03.765Z,26.95
2023-07-25T12:10:56.179Z,26.80
2023-07-25T12:12:46.688Z,26.66
2023-07-25T12:14:23.240Z,26.51
2023-07-25T12:15:48.209Z,26.34
2023-07-25T12:17:31.121Z,26.13
2023-07-25T12:18:58.971Z,25.93
2023-07-25T12:20:28.568Z,25.91
2023-07-25T12:22:21.576Z,25.87
2023-07-25T12:24:23.694Z,25.85
2023-07-25T12:26:15.911Z,25.92
2023-07-25T12:27:46.979Z,25.89
2023-07-25T12:29:32.106Z,25.98
2023-07-25T12:31:27.927Z,25.98
2023-07-25T12:33:28.449Z,25.98
2023-07-25T12:35:10.687Z,25.95
2023-07-25T12:37:02.356Z,26.02
2023-07-25T12:39:04.554Z,26.26
2023-07-25T12:41:02.856Z,26.88
2023-07-25T12:43:04.640Z,27.24
2023-07-25T12:45:08.566Z,27.15
2023-07-25T12:47:11.642Z,27.35
2023-07-25T12:49:13.281Z,27.64
2023-07-25T12:51:15.052Z,27.85
2023-07-25T12:52:56.873Z,28.12
2023-07-25T12:54:51.447Z,28.25
2023-07-25T12:56:53.419Z,28.09
2023-07-25T12:58:49.236Z,27.64
2023-07-25T13:00:37.622Z,27.37
2023-07-25T13:02:39.889Z,27.24
2023-07-25T13:04:27.415Z,27.07
2023-07-25T13:06:29.615Z,27.14
2023-07-25T13:08:30.334Z,27.69
2023-07-25T13:10:30.800Z,28.38
2023-07-25T13:12:00.054Z,28.77
2023-07-25T13:13:41.737Z,29.01
2023-07-25T13:15:36.211Z,29.25
2023-07-25T13:17:37.937Z,29.34
2023-07-25T13:19:19.434Z,29.29
2023-07-25T13:21:21.602Z,29.05
2023-07-25T13:23:03.442Z,29.17
2023-07-25T13:25:05.607Z,29.01
2023-07-25T13:28:23.227Z,28.68
2023-07-25T13:30:08.311Z,28.31
2023-07-25T13:31:49.232Z,27.97
2023-07-25T13:33:22.740Z,27.72
2023-07-25T13:34:55.862Z,27.47
2023-07-25T13:36:29.038Z,27.42
2023-07-25T13:38:03.650Z,27.38
2023-07-25T13:39:36.956Z,27.28
2023-07-25T13:41:05.994Z,27.19
2023-07-25T13:42:30.153Z,27.10
2023-07-25T13:44:01.172Z,26.96
2023-07-25T13:45:41.827Z,26.81
2023-07-25T13:47:22.585Z,26.74
2023-07-25T13:48:52.118Z,26.59
2023-07-25T13:50:32.383Z,26.41
2023-07-25T13:52:23.540Z,26.35
2023-07-25T13:54:08.482Z,26.29
2023-07-25T13:55:44.199Z,26.32
2023-07-25T13:57:17.554Z,26.37
2023-07-25T13:58:53.234Z,26.32
2023-07-25T14:00:29.243Z,26.21
2023-07-25T14:02:03.713Z,26.09
2023-07-25T14:03:37.466Z,25.94
2023-07-25T14:05:10.723Z,25.81
2023-07-25T14:06:56.646Z,25.73
2023-07-25T14:08:42.461Z,25.68
2023-07-25T14:10:27.017Z,25.54
2023-07-25T14:12:05.418Z,25.48
2023-07-25T14:13:41.489Z,25.38
2023-07-25T14:15:24.423Z,25.43
2023-07-25T14:17:17.083Z,25.34
2023-07-25T14:18:52.645Z,25.25
2023-07-25T14:20:26.286Z,25.20
2023-07-25T14:22:11.255Z,25.17
2023-07-25T14:23:47.040Z,25.15
2023-07-25T14:25:21.616Z,25.18
2023-07-25T14:27:02.392Z,25.19
2023-07-25T14:28:43.393Z,25.18
2023-07-25T14:30:17.409Z,25.14
2023-07-25T14:31:54.819Z,25.06
2023-07-25T14:33:39.652Z,24.97
2023-07-25T14:35:13.070Z,24.88
2023-07-25T14:36:46.309Z,24.80
2023-07-25T14:38:19.516Z,24.74
2023-07-25T14:39:59.989Z,24.59
2023-07-25T14:41:33.135Z,24.68
2023-07-25T14:43:13.868Z,24.68
2023-07-25T14:44:49.313Z,24.62
2023-07-25T14:46:34.829Z,24.63
2023-07-25T14:47:57.324Z,24.53
2023-07-25T14:49:38.660Z,24.44
2023-07-25T14:51:23.563Z,24.37
2023-07-25T14:52:57.010Z,24.33
2023-07-25T14:54:41.821Z,24.30
2023-07-25T14:56:14.976Z,24.27
2023-07-25T14:57:48.528Z,24.22
2023-07-25T14:59:33.736Z,24.13
2023-07-25T15:01:21.556Z,24.12
2023-07-25T15:02:43.660Z,24.12
2023-07-25T15:04:29.473Z,24.16
2023-07-25T15:06:02.923Z,24.11
2023-07-25T15:07:34.252Z,24.09
2023-07-25T15:09:10.145Z,24.01
2023-07-25T15:10:50.980Z,23.86
2023-07-25T15:12:36.239Z,23.73
2023-07-25T15:14:00.874Z,23.65
2023-07-25T15:15:36.425Z,23.59
2023-07-25T15:16:57.871Z,23.53
2023-07-25T15:18:31.165Z,23.50
2023-07-25T15:19:59.969Z,23.39
2023-07-25T15:21:31.439Z,23.36
2023-07-25T15:22:53.167Z,23.31
2023-07-25T15:24:16.795Z,23.25
2023-07-25T15:25:41.032Z,23.19
2023-07-25T15:27:16.678Z,23.10
2023-07-25T15:28:42.905Z,22.99
2023-07-25T15:30:28.061Z,22.87
2023-07-25T15:31:52.232Z,22.80
2023-07-25T15:33:25.395Z,22.76
2023-07-25T15:35:09.100Z,22.72
2023-07-25T15:36:33.000Z,22.63
2023-07-25T15:37:59.472Z,22.58
2023-07-25T15:39:32.697Z,22.54
2023-07-25T15:41:05.787Z,22.46
2023-07-25T15:42:38.826Z,22.45
2023-07-25T15:44:11.940Z,22.41
2023-07-25T15:45:36.784Z,22.40
2023-07-25T15:46:58.556Z,22.37
2023-07-25T15:48:44.320Z,22.35
2023-07-25T15:50:07.437Z,22.29
2023-07-25T15:51:29.362Z,22.24
2023-07-25T15:53:02.454Z,22.20
2023-07-25T15:54:24.281Z,22.18
2023-07-25T15:55:46.103Z,22.13
2023-07-25T15:57:08.065Z,22.08
2023-07-25T15:58:32.213Z,22.02
2023-07-25T15:59:53.856Z,21.98
2023-07-25T16:01:27.450Z,21.95
2023-07-25T16:02:48.895Z,21.92
2023-07-25T16:04:11.307Z,21.90
2023-07-25T16:05:33.359Z,21.85
2023-07-25T16:06:57.254Z,21.82
2023-07-25T16:08:30.660Z,21.80
2023-07-25T16:09:52.305Z,21.75
2023-07-25T16:11:16.200Z,21.70
2023-07-25T16:12:40.224Z,21.69
2023-07-25T16:14:11.750Z,21.67
2023-07-25T16:15:54.278Z,21.64
2023-07-25T16:17:35.226Z,21.62
2023-07-25T16:18:56.807Z,21.62
2023-07-25T16:20:29.879Z,21.64
2023-07-25T16:21:54.105Z,21.63
2023-07-25T16:23:16.233Z,21.62
2023-07-25T16:24:38.502Z,21.61
2023-07-25T16:26:04.527Z,21.58
2023-07-25T16:27:29.014Z,21.53
2023-07-25T16:28:52.850Z,21.51
2023-07-25T16:30:19.546Z,21.47
2023-07-25T16:31:43.639Z,21.41
2023-07-25T16:33:05.837Z,21.39
2023-07-25T16:34:30.742Z,21.37
2023-07-25T16:35:52.596Z,21.35
2023-07-25T16:37:14.485Z,21.30
2023-07-25T16:38:44.125Z,21.24
2023-07-25T16:40:05.424Z,21.19
2023-07-25T16:41:27.438Z,21.16
2023-07-25T16:43:08.539Z,21.12
2023-07-25T16:44:46.020Z,21.03
2023-07-25T16:46:19.436Z,21.05
2023-07-25T16:47:41.514Z,21.05
2023-07-25T16:49:15.163Z,20.98
2023-07-25T16:50:51.310Z,21.04
2023-07-25T16:52:13.106Z,21.04
2023-07-25T16:53:35.430Z,21.04
2023-07-25T16:54:57.328Z,21.05
2023-07-25T16:56:19.275Z,21.07
2023-07-25T16:57:54.764Z,21.07
2023-07-25T16:59:23.909Z,21.04
2023-07-25T17:00:45.816Z,20.98
2023-07-25T17:02:07.675Z,20.94
2023-07-25T17:03:35.329Z,20.91
2023-07-25T17:05:02.995Z,20.86
2023-07-25T17:06:25.981Z,20.82
2023-07-25T17:08:01.624Z,20.77
2023-07-25T17:09:32.837Z,20.70
2023-07-25T17:11:06.072Z,20.65
2023-07-25T17:12:30.380Z,20.57
2023-07-25T17:13:59.704Z,20.49
2023-07-25T17:15:21.623Z,20.43
2023-07-25T17:16:58.193Z,20.37
2023-07-25T17:18:31.554Z,20.32
2023-07-25T17:19:55.345Z,20.29
2023-07-25T17:21:23.479Z,20.26
2023-07-25T17:23:03.815Z,20.20
2023-07-25T17:24:49.182Z,20.18
2023-07-25T17:26:11.397Z,20.15
2023-07-25T17:27:44.597Z,20.14
2023-07-25T17:29:07.158Z,20.11
2023-07-25T17:30:36.545Z,20.11
2023-07-25T17:32:01.177Z,20.09
2023-07-25T17:33:23.449Z,20.09
2023-07-25T17:34:47.792Z,20.09
2023-07-25T17:36:24.120Z,20.11
2023-07-25T17:37:46.435Z,20.09
2023-07-25T17:39:10.101Z,20.08
2023-07-25T17:40:39.490Z,20.06
2023-07-25T17:42:03.336Z,20.08
2023-07-25T17:43:25.483Z,20.08
2023-07-25T17:45:06.366Z,20.08
2023-07-25T17:46:47.489Z,20.10
2023-07-25T17:48:11.781Z,20.12
2023-07-25T17:49:33.592Z,20.14
2023-07-25T17:50:58.528Z,20.14
2023-07-25T17:52:34.324Z,20.16
2023-07-25T17:53:56.635Z,20.17
2023-07-25T17:55:21.312Z,20.16
2023-07-25T17:56:43.245Z,20.17
2023-07-25T17:58:18.898Z,20.17
2023-07-25T17:59:42.707Z,20.15
2023-07-25T18:01:04.553Z,20.13
2023-07-25T18:02:26.997Z,20.09
2023-07-25T18:03:51.212Z,20.10
2023-07-25T18:05:16.114Z,20.07
2023-07-25T18:06:40.038Z,20.04
2023-07-25T18:08:09.512Z,19.98
2023-07-25T18:09:31.407Z,19.95
2023-07-25T18:10:53.383Z,19.94
2023-07-25T18:12:17.407Z,19.94
2023-07-25T18:13:39.483Z,19.92
2023-07-25T18:15:01.122Z,19.90
2023-07-25T18:16:23.106Z,19.88
2023-07-25T18:17:45.223Z,19.85
2023-07-25T18:19:14.523Z,19.81
2023-07-25T18:20:57.301Z,19.77
2023-07-25T18:22:18.880Z,19.74
2023-07-25T18:23:42.748Z,19.72
2023-07-25T18:25:05.135Z,19.70
2023-07-25T18:26:34.466Z,19.67
2023-07-25T18:28:03.324Z,19.64
2023-07-25T18:29:25.279Z,19.62
2023-07-25T18:30:49.461Z,19.58
2023-07-25T18:32:23.488Z,19.54
2023-07-25T18:33:57.225Z,19.52
2023-07-25T18:35:22.651Z,19.48
2023-07-25T18:36:44.602Z,19.45
2023-07-25T18:38:06.695Z,19.41
2023-07-25T18:39:31.031Z,19.36
2023-07-25T18:40:53.209Z,19.31
2023-07-25T18:42:22.639Z,19.28
2023-07-25T18:43:44.784Z,19.23
2023-07-25T18:45:06.342Z,19.18
2023-07-25T18:46:40.064Z,19.14
2023-07-25T18:48:09.006Z,19.09
2023-07-25T18:49:30.502Z,19.05
2023-07-25T18:50:59.707Z,19.01
2023-07-25T18:52:21.308Z,18.96
2023-07-25T18:53:45.887Z,18.92
2023-07-25T18:55:07.496Z,18.87
2023-07-25T18:56:29.603Z,18.86
2023-07-25T18:57:59.844Z,18.83
2023-07-25T18:59:24.159Z,18.78
2023-07-25T19:00:49.128Z,18.73
2023-07-25T19:02:22.741Z,18.69
2023-07-25T19:03:54.729Z,18.64
2023-07-25T19:05:16.420Z,18.60
2023-07-25T19:06:38.445Z,18.56
2023-07-25T19:08:00.324Z,18.53
2023-07-25T19:09:36.520Z,18.51
2023-07-25T19:11:00.771Z,18.47
2023-07-25T19:12:22.510Z,18.43
2023-07-25T19:13:44.752Z,18.40
2023-07-25T19:15:06.669Z,18.36
2023-07-25T19:16:28.613Z,18.32
2023-07-25T19:17:52.542Z,18.27
2023-07-25T19:19:17.295Z,18.20
2023-07-25T19:20:38.987Z,18.15
2023-07-25T19:22:03.059Z,18.10
2023-07-25T19:23:27.317Z,18.05
2023-07-25T19:25:01.267Z,17.99
2023-07-25T19:26:31.010Z,17.92
2023-07-25T19:28:07.324Z,17.91
2023-07-25T19:29:31.385Z,17.88
2023-07-25T19:31:05.051Z,17.85
2023-07-25T19:32:46.224Z,17.78
2023-07-25T19:34:19.688Z,17.74
2023-07-25T19:35:41.612Z,17.72
2023-07-25T19:37:03.222Z,17.70
2023-07-25T19:38:27.429Z,17.67
2023-07-25T19:40:08.950Z,17.62
2023-07-25T19:41:56.717Z,17.58
2023-07-25T19:43:42.138Z,17.55
2023-07-25T19:45:14.792Z,17.52
2023-07-25T19:46:37.079Z,17.50
2023-07-25T19:47:59.003Z,17.43
2023-07-25T19:49:20.970Z,17.47
2023-07-25T19:51:02.188Z,17.42
2023-07-25T19:52:27.237Z,17.39
2023-07-25T19:53:51.683Z,17.38
2023-07-25T19:55:25.348Z,17.36
2023-07-25T19:56:58.910Z,17.33
2023-07-25T19:58:32.743Z,17.33
2023-07-25T19:59:54.993Z,17.34
2023-07-25T20:01:16.795Z,17.34
2023-07-25T20:02:38.774Z,17.34
2023-07-25T20:04:00.998Z,17.35
2023-07-25T20:05:30.642Z,17.36
2023-07-25T20:07:02.082Z,17.37
2023-07-25T20:08:23.808Z,17.36
2023-07-25T20:09:57.521Z,17.34
2023-07-25T20:11:30.972Z,17.31
2023-07-25T20:13:02.900Z,17.29
2023-07-25T20:14:24.924Z,17.27
2023-07-25T20:15:47.236Z,17.26
2023-07-25T20:17:08.943Z,17.24
2023-07-25T20:18:31.225Z,17.22
2023-07-25T20:19:52.697Z,17.19
2023-07-25T20:21:17.444Z,17.18
2023-07-25T20:22:44.621Z,17.16
2023-07-25T20:24:13.719Z,17.15
2023-07-25T20:25:42.842Z,17.14
2023-07-25T20:27:04.781Z,17.13
2023-07-25T20:28:29.181Z,17.14
2023-07-25T20:29:50.779Z,17.13
2023-07-25T20:31:12.344Z,17.13
2023-07-25T20:32:34.454Z,17.13
2023-07-25T20:34:07.974Z,17.11
2023-07-25T20:35:32.270Z,17.08
2023-07-25T20:36:56.365Z,17.08
2023-07-25T20:38:27.430Z,17.07
2023-07-25T20:39:51.088Z,17.06
2023-07-25T20:41:12.816Z,17.06
2023-07-25T20:42:34.714Z,17.05
2023-07-25T20:43:58.622Z,17.03
2023-07-25T20:45:34.793Z,17.02
2023-07-25T20:47:03.950Z,16.99
2023-07-25T20:48:33.082Z,16.99
2023-07-25T20:50:06.535Z,16.97
2023-07-25T20:51:38.915Z,16.95
2023-07-25T20:53:12.234Z,16.92
2023-07-25T20:54:51.863Z,16.88
2023-07-25T20:56:18.440Z,16.82
2023-07-25T20:57:42.442Z,16.77
2023-07-25T20:59:04.044Z,16.73
2023-07-25T21:00:37.706Z,16.72
2023-07-25T21:02:01.822Z,16.72
2023-07-25T21:03:29.153Z,16.72
2023-07-25T21:04:53.412Z,16.73
2023-07-25T21:06:15.054Z,16.74
2023-07-25T21:07:38.359Z,16.74
2023-07-25T21:08:59.903Z,16.74
2023-07-25T21:10:31.377Z,16.71
2023-07-25T21:12:02.865Z,16.67
2023-07-25T21:13:24.982Z,16.63
2023-07-25T21:14:46.350Z,16.57
2023-07-25T21:16:18.899Z,16.53
2023-07-25T21:17:45.784Z,16.50
2023-07-25T21:19:07.672Z,16.46
2023-07-25T21:20:29.773Z,16.43
2023-07-25T21:21:51.620Z,16.42
2023-07-25T21:23:15.613Z,16.45
2023-07-25T21:24:37.819Z,16.46
2023-07-25T21:25:59.928Z,16.46
2023-07-25T21:27:29.354Z,16.42
2023-07-25T21:29:17.486Z,16.43
2023-07-25T21:30:40.008Z,16.42
2023-07-25T21:32:01.753Z,16.41
2023-07-25T21:33:27.290Z,16.42